Time;durP1;ratioP1;P1;durP2;ratioP2;P2;SDS_P1;SDS_P2;PMS_P1;PMS_P2;Temp;Humidity;BMP_temperature;BMP_pressure;BME280_temperature;BME280_humidity;BME280_pressure;Samples;Min_cycle;Max_cycle;Signal;HPM_P1;HPM_P2
2020/12/31 00:02:21;;;;;;;28.30;16.08;;;;;;;;;;5036012;28;20546;-76
2020/12/31 00:04:48;;;;;;;22.25;15.05;;;;;;;;;;5036441;28;20029;-76
2020/12/31 00:07:14;;;;;;;24.48;15.55;;;;;;;;;;5035947;28;20065;-77
2020/12/31 00:09:40;;;;;;;24.20;15.68;;;;;;;;;;5036126;28;20033;-76
2020/12/31 00:12:07;;;;;;;24.05;16.52;;;;;;;;;;5036215;28;20030;-77
2020/12/31 00:14:33;;;;;;;24.38;17.17;;;;;;;;;;5036154;28;20023;-76
2020/12/31 00:16:59;;;;;;;31.55;18.35;;;;;;;;;;5036166;28;20053;-76
2020/12/31 00:19:25;;;;;;;25.67;17.42;;;;;;;;;;5036413;28;20018;-76
2020/12/31 00:21:52;;;;;;;28.38;17.73;;;;;;;;;;5035850;28;20029;-76
2020/12/31 00:24:18;;;;;;;27.27;17.45;;;;;;;;;;5035641;28;20032;-76
2020/12/31 00:26:44;;;;;;;26.63;17.90;;;;;;;;;;5035716;28;20079;-76
2020/12/31 00:29:10;;;;;;;25.15;17.85;;;;;;;;;;5035672;28;20104;-76
2020/12/31 00:31:36;;;;;;;28.60;18.13;;;;;;;;;;5035524;28;20033;-76
2020/12/31 00:34:03;;;;;;;24.45;15.45;;;;;;;;;;5035860;28;20028;-76
2020/12/31 00:36:29;;;;;;;23.83;16.73;;;;;;;;;;5036179;28;20100;-76
2020/12/31 00:38:55;;;;;;;27.13;17.00;;;;;;;;;;5035427;28;20048;-76
2020/12/31 00:41:21;;;;;;;25.73;14.63;;;;;;;;;;5035614;28;20028;-77
2020/12/31 00:43:48;;;;;;;26.77;15.55;;;;;;;;;;5035672;28;20057;-77
2020/12/31 00:46:14;;;;;;;23.85;15.15;;;;;;;;;;5035455;28;20504;-77
2020/12/31 00:48:41;;;;;;;21.98;15.45;;;;;;;;;;5035510;28;20029;-77
2020/12/31 00:51:07;;;;;;;27.30;17.23;;;;;;;;;;5035494;28;20029;-77
2020/12/31 00:53:34;;;;;;;25.55;16.27;;;;;;;;;;5035385;28;20047;-75
2020/12/31 00:56:00;;;;;;;25.67;17.17;;;;;;;;;;5035214;28;20139;-75
2020/12/31 00:58:26;;;;;;;26.08;17.40;;;;;;;;;;5035038;28;20451;-75
2020/12/31 01:00:52;;;;;;;24.67;15.77;;;;;;;;;;5035419;28;20018;-76
2020/12/31 01:03:19;;;;;;;23.50;14.77;;;;;;;;;;5034986;28;20021;-77
2020/12/31 01:05:45;;;;;;;26.35;16.60;;;;;;;;;;5034892;28;20060;-77
2020/12/31 01:08:11;;;;;;;27.88;18.58;;;;;;;;;;5034144;28;20025;-76
2020/12/31 01:10:38;;;;;;;29.00;19.90;;;;;;;;;;5035233;28;20025;-75
2020/12/31 01:13:04;;;;;;;29.35;19.70;;;;;;;;;;5034823;28;20104;-75
2020/12/31 01:15:30;;;;;;;34.70;20.65;;;;;;;;;;5035093;28;20025;-75
2020/12/31 01:17:56;;;;;;;30.58;20.35;;;;;;;;;;5034727;28;20027;-75
2020/12/31 01:20:23;;;;;;;31.50;19.80;;;;;;;;;;5034743;28;20080;-75
2020/12/31 01:22:49;;;;;;;29.10;19.95;;;;;;;;;;5034967;28;20100;-75
2020/12/31 01:25:15;;;;;;;31.77;20.27;;;;;;;;;;5034448;28;20029;-76
2020/12/31 01:27:41;;;;;;;27.50;20.67;;;;;;;;;;5034726;28;20030;-76
2020/12/31 01:30:08;;;;;;;33.65;20.55;;;;;;;;;;5034518;28;20064;-75
2020/12/31 01:32:34;;;;;;;32.45;20.58;;;;;;;;;;5034739;28;20037;-76
2020/12/31 01:35:00;;;;;;;29.17;20.23;;;;;;;;;;5034413;28;20036;-76
2020/12/31 01:37:26;;;;;;;26.35;19.40;;;;;;;;;;5034438;28;20434;-77
2020/12/31 01:39:52;;;;;;;27.90;19.50;;;;;;;;;;5034305;28;20033;-77
2020/12/31 01:42:18;;;;;;;30.67;20.23;;;;;;;;;;5034162;28;20103;-76
2020/12/31 01:44:45;;;;;;;26.25;18.17;;;;;;;;;;5034237;28;20036;-76
2020/12/31 01:47:12;;;;;;;29.20;19.73;;;;;;;;;;5034216;28;20135;-74
2020/12/31 01:49:40;;;;;;;28.75;19.02;;;;;;;;;;5034386;28;20030;-74
2020/12/31 01:52:06;;;;;;;29.30;19.90;;;;;;;;;;5034352;28;20026;-74
2020/12/31 01:54:32;;;;;;;29.40;20.08;;;;;;;;;;5034306;28;20394;-75
2020/12/31 01:56:59;;;;;;;29.88;20.40;;;;;;;;;;5034004;28;20026;-75
2020/12/31 01:59:25;;;;;;;32.25;21.88;;;;;;;;;;5034141;28;20025;-75
2020/12/31 02:01:52;;;;;;;30.98;21.05;;;;;;;;;;5033925;28;20025;-75
2020/12/31 02:04:19;;;;;;;28.17;19.60;;;;;;;;;;5034461;28;20060;-74
2020/12/31 02:06:45;;;;;;;31.05;20.63;;;;;;;;;;5034055;28;20413;-76
2020/12/31 02:09:12;;;;;;;28.83;19.58;;;;;;;;;;5033742;28;20049;-75
2020/12/31 02:11:39;;;;;;;30.20;19.92;;;;;;;;;;5033806;28;20493;-75
2020/12/31 02:14:05;;;;;;;32.45;21.98;;;;;;;;;;5033545;28;20028;-75
2020/12/31 02:16:38;;;;;;;30.58;20.02;;;;;;;;;;5033623;28;20036;-75
2020/12/31 02:19:09;;;;;;;27.05;18.75;;;;;;;;;;5033288;28;20394;-74
2020/12/31 02:21:36;;;;;;;24.65;17.67;;;;;;;;;;5033544;28;20500;-75
2020/12/31 02:24:04;;;;;;;26.65;17.80;;;;;;;;;;5033373;28;20025;-75
2020/12/31 02:26:31;;;;;;;29.50;20.15;;;;;;;;;;5033746;28;20394;-75
2020/12/31 02:28:57;;;;;;;28.13;19.42;;;;;;;;;;5033489;28;20022;-75
2020/12/31 02:31:24;;;;;;;25.65;16.23;;;;;;;;;;5033942;28;20048;-75
2020/12/31 02:33:51;;;;;;;27.27;16.70;;;;;;;;;;5033391;28;20075;-75
2020/12/31 02:36:19;;;;;;;25.92;15.57;;;;;;;;;;5033289;28;20558;-75
2020/12/31 02:38:45;;;;;;;18.77;11.95;;;;;;;;;;5033245;28;20486;-76
2020/12/31 02:41:11;;;;;;;32.47;16.90;;;;;;;;;;5033474;28;20037;-75
2020/12/31 02:43:38;;;;;;;21.85;13.13;;;;;;;;;;5033250;28;20053;-76
2020/12/31 02:46:05;;;;;;;24.77;14.35;;;;;;;;;;5033223;28;20037;-75
2020/12/31 02:48:31;;;;;;;21.27;11.95;;;;;;;;;;5033283;28;20032;-76
2020/12/31 02:50:58;;;;;;;14.65;8.60;;;;;;;;;;5033072;28;20033;-76
2020/12/31 02:53:24;;;;;;;10.48;6.65;;;;;;;;;;5033210;28;20029;-76
2020/12/31 02:55:50;;;;;;;8.25;5.20;;;;;;;;;;5033368;28;20030;-76
2020/12/31 02:58:17;;;;;;;11.57;7.40;;;;;;;;;;5033133;28;20028;-77
2020/12/31 03:00:43;;;;;;;12.32;8.35;;;;;;;;;;5033175;28;20030;-76
2020/12/31 03:03:10;;;;;;;14.90;9.77;;;;;;;;;;5033338;28;20417;-76
2020/12/31 03:05:36;;;;;;;14.57;10.15;;;;;;;;;;5033126;28;20052;-76
2020/12/31 03:08:02;;;;;;;16.45;10.85;;;;;;;;;;5033262;28;20099;-77
2020/12/31 03:10:29;;;;;;;17.25;10.55;;;;;;;;;;5032983;28;20068;-77
2020/12/31 03:12:55;;;;;;;16.15;10.50;;;;;;;;;;5032983;28;20018;-76
2020/12/31 03:15:22;;;;;;;14.85;9.45;;;;;;;;;;5033177;28;20025;-76
2020/12/31 03:17:48;;;;;;;12.85;9.10;;;;;;;;;;5032876;28;20037;-77
2020/12/31 03:20:14;;;;;;;15.55;10.15;;;;;;;;;;5032800;28;20028;-76
2020/12/31 03:22:40;;;;;;;16.08;9.98;;;;;;;;;;5033136;28;20087;-76
2020/12/31 03:25:07;;;;;;;12.98;9.30;;;;;;;;;;5032636;28;20036;-76
2020/12/31 03:27:33;;;;;;;16.83;9.77;;;;;;;;;;5032901;28;20112;-76
2020/12/31 03:30:00;;;;;;;19.25;10.73;;;;;;;;;;5032808;28;20037;-76
2020/12/31 03:32:26;;;;;;;16.02;9.65;;;;;;;;;;5035250;28;20036;-76
2020/12/31 03:34:52;;;;;;;16.10;10.50;;;;;;;;;;5036671;28;20025;-76
2020/12/31 03:37:19;;;;;;;15.27;9.60;;;;;;;;;;5036811;28;20029;-76
2020/12/31 03:39:45;;;;;;;15.98;9.48;;;;;;;;;;5036895;28;20029;-77
2020/12/31 03:42:11;;;;;;;13.32;9.30;;;;;;;;;;5036580;28;20585;-76
2020/12/31 03:44:37;;;;;;;11.38;8.27;;;;;;;;;;5036804;28;20391;-76
2020/12/31 03:47:04;;;;;;;11.35;7.80;;;;;;;;;;5036770;28;20025;-76
2020/12/31 03:49:30;;;;;;;11.90;7.85;;;;;;;;;;5036584;28;20017;-76
2020/12/31 03:51:56;;;;;;;17.52;7.53;;;;;;;;;;5036312;28;20079;-76
2020/12/31 03:54:22;;;;;;;14.30;7.78;;;;;;;;;;5036329;28;20018;-76
2020/12/31 03:56:48;;;;;;;11.27;7.30;;;;;;;;;;5036339;28;20032;-76
2020/12/31 03:59:14;;;;;;;10.73;6.78;;;;;;;;;;5036329;28;20099;-75
2020/12/31 04:01:41;;;;;;;10.63;7.32;;;;;;;;;;5036213;28;20463;-75
2020/12/31 04:04:07;;;;;;;7.25;5.28;;;;;;;;;;5036438;28;20438;-75
2020/12/31 04:06:33;;;;;;;11.90;6.55;;;;;;;;;;5036006;28;20461;-75
2020/12/31 04:08:59;;;;;;;11.07;6.07;;;;;;;;;;5036090;28;20049;-75
2020/12/31 04:11:25;;;;;;;9.27;5.65;;;;;;;;;;5035976;28;20385;-75
2020/12/31 04:13:51;;;;;;;23.60;11.75;;;;;;;;;;5035932;28;20060;-76
2020/12/31 04:16:17;;;;;;;21.17;11.52;;;;;;;;;;5035863;28;20429;-76
2020/12/31 04:18:44;;;;;;;19.10;10.35;;;;;;;;;;5036172;28;20080;-76
2020/12/31 04:21:10;;;;;;;13.98;7.80;;;;;;;;;;5036034;28;20021;-76
2020/12/31 04:23:36;;;;;;;16.00;9.90;;;;;;;;;;5035807;28;20033;-76
2020/12/31 04:26:02;;;;;;;64.13;33.00;;;;;;;;;;5035615;28;20060;-76
2020/12/31 04:28:28;;;;;;;11.35;8.15;;;;;;;;;;5035634;28;20387;-76
2020/12/31 04:30:54;;;;;;;14.20;8.15;;;;;;;;;;5035662;28;20474;-76
2020/12/31 04:33:20;;;;;;;11.77;8.48;;;;;;;;;;5035884;28;20457;-76
2020/12/31 04:35:46;;;;;;;11.90;7.57;;;;;;;;;;5035624;28;20037;-76
2020/12/31 04:38:13;;;;;;;9.65;5.72;;;;;;;;;;5035510;28;20100;-76
2020/12/31 04:40:43;;;;;;;6.65;4.63;;;;;;;;;;5035418;28;20032;-76
2020/12/31 04:43:09;;;;;;;7.38;5.03;;;;;;;;;;5035215;28;20465;-76
2020/12/31 04:45:37;;;;;;;7.32;4.63;;;;;;;;;;5035320;28;20033;-76
2020/12/31 04:48:12;;;;;;;14.93;8.63;;;;;;;;;;5035214;28;20032;-76
2020/12/31 04:50:40;;;;;;;13.18;8.00;;;;;;;;;;5035544;28;20104;-75
2020/12/31 04:53:07;;;;;;;25.75;15.20;;;;;;;;;;5035486;28;20026;-76
2020/12/31 04:55:33;;;;;;;18.77;10.48;;;;;;;;;;5035257;28;20030;-76
2020/12/31 04:57:59;;;;;;;5.43;3.53;;;;;;;;;;5035421;28;20072;-76
2020/12/31 05:00:26;;;;;;;14.10;4.32;;;;;;;;;;5035182;28;20029;-76
2020/12/31 05:02:55;;;;;;;5.03;3.45;;;;;;;;;;5035318;28;20036;-75
2020/12/31 05:05:21;;;;;;;6.13;2.85;;;;;;;;;;5035336;28;20108;-76
2020/12/31 05:07:51;;;;;;;4.53;3.00;;;;;;;;;;5034901;28;20075;-75
2020/12/31 05:10:17;;;;;;;7.03;2.75;;;;;;;;;;5034983;28;20031;-75
2020/12/31 05:12:43;;;;;;;4.68;3.08;;;;;;;;;;5034985;28;20018;-75
2020/12/31 05:15:09;;;;;;;4.70;3.13;;;;;;;;;;5034887;28;20025;-76
2020/12/31 05:17:35;;;;;;;4.00;2.67;;;;;;;;;;5034709;28;20052;-76
2020/12/31 05:20:15;;;;;;;3.88;2.50;;;;;;;;;;5034830;28;20057;-76
2020/12/31 05:22:41;;;;;;;6.93;3.05;;;;;;;;;;5034846;28;20033;-76
2020/12/31 05:25:07;;;;;;;4.32;2.55;;;;;;;;;;5034873;28;20036;-77
2020/12/31 05:27:33;;;;;;;4.30;2.33;;;;;;;;;;5034507;28;20037;-76
2020/12/31 05:30:02;;;;;;;6.55;2.80;;;;;;;;;;5034527;28;20033;-77
2020/12/31 05:32:30;;;;;;;4.00;2.40;;;;;;;;;;5034395;28;20123;-76
2020/12/31 05:34:56;;;;;;;2.83;1.88;;;;;;;;;;5034772;28;20048;-76
2020/12/31 05:37:23;;;;;;;3.10;1.98;;;;;;;;;;5034587;28;20073;-76
2020/12/31 05:40:00;;;;;;;4.97;1.90;;;;;;;;;;5034423;28;20474;-76
2020/12/31 05:42:27;;;;;;;4.90;2.67;;;;;;;;;;5034491;28;20045;-76
2020/12/31 05:45:11;;;;;;;2.97;1.85;;;;;;;;;;5034234;28;20037;-75
2020/12/31 05:48:03;;;;;;;3.40;2.35;;;;;;;;;;5034430;28;20029;-76
2020/12/31 05:50:31;;;;;;;5.40;2.50;;;;;;;;;;5029910;28;20038;-77
2020/12/31 05:52:57;;;;;;;3.30;2.30;;;;;;;;;;5034107;28;20025;-77
2020/12/31 05:55:24;;;;;;;5.22;3.00;;;;;;;;;;5033939;28;20474;-76
2020/12/31 05:57:51;;;;;;;3.55;2.25;;;;;;;;;;5034210;28;20553;-76
2020/12/31 06:00:20;;;;;;;5.55;2.38;;;;;;;;;;5034061;28;20418;-75
2020/12/31 06:02:51;;;;;;;5.05;2.33;;;;;;;;;;5033784;28;20113;-75
2020/12/31 06:05:18;;;;;;;4.22;2.20;;;;;;;;;;5034111;28;20061;-75
2020/12/31 06:07:55;;;;;;;26.30;13.70;;;;;;;;;;5033955;28;20032;-75
2020/12/31 06:10:28;;;;;;;45.42;23.42;;;;;;;;;;5034181;28;20037;-75
2020/12/31 06:12:55;;;;;;;87.22;50.97;;;;;;;;;;5034089;28;20032;-75
2020/12/31 06:15:22;;;;;;;51.08;30.20;;;;;;;;;;5033647;28;20056;-75
2020/12/31 06:17:49;;;;;;;31.23;17.67;;;;;;;;;;5033943;28;20043;-75
2020/12/31 06:20:16;;;;;;;14.68;8.90;;;;;;;;;;5033726;28;20021;-75
2020/12/31 06:23:01;;;;;;;4.63;2.90;;;;;;;;;;5033766;28;20036;-75
2020/12/31 06:25:41;;;;;;;5.32;3.10;;;;;;;;;;5033400;28;20024;-74
2020/12/31 06:28:07;;;;;;;6.78;3.53;;;;;;;;;;5015836;28;20056;-75
2020/12/31 06:30:33;;;;;;;11.88;3.88;;;;;;;;;;5033376;28;20449;-75
2020/12/31 06:33:09;;;;;;;7.32;4.10;;;;;;;;;;5033418;28;20447;-75
2020/12/31 06:35:35;;;;;;;7.93;5.00;;;;;;;;;;5033596;28;20390;-75
2020/12/31 06:38:01;;;;;;;7.72;4.32;;;;;;;;;;5033398;28;20108;-74
2020/12/31 06:40:32;;;;;;;5.97;3.20;;;;;;;;;;5033504;28;20488;-74
2020/12/31 06:43:13;;;;;;;2.92;1.98;;;;;;;;;;5033156;28;20049;-74
2020/12/31 06:45:43;;;;;;;10.67;2.90;;;;;;;;;;5033322;28;20497;-75
2020/12/31 06:48:28;;;;;;;4.95;2.20;;;;;;;;;;5033246;28;20083;-75
2020/12/31 06:50:58;;;;;;;8.40;1.90;;;;;;;;;;5033308;28;20021;-74
2020/12/31 06:53:30;;;;;;;3.17;2.00;;;;;;;;;;5033163;28;20053;-72
2020/12/31 06:55:57;;;;;;;3.17;1.98;;;;;;;;;;5033064;28;20032;-78
2020/12/31 06:58:27;;;;;;;3.67;2.00;;;;;;;;;;5033285;28;20036;-75
2020/12/31 07:00:53;;;;;;;8.40;2.10;;;;;;;;;;5033191;28;20021;-76
2020/12/31 07:03:38;;;;;;;2.85;2.20;;;;;;;;;;5033393;28;20026;-78
2020/12/31 07:06:22;;;;;;;3.53;2.28;;;;;;;;;;5033288;28;20056;-76
2020/12/31 07:08:48;;;;;;;5.60;2.00;;;;;;;;;;5037076;28;20064;-74
2020/12/31 07:11:15;;;;;;;4.15;2.45;;;;;;;;;;5037359;28;20451;-74
2020/12/31 07:13:41;;;;;;;4.10;2.30;;;;;;;;;;5037247;28;20036;-75
2020/12/31 07:16:07;;;;;;;3.40;2.03;;;;;;;;;;5037331;28;20021;-75
2020/12/31 07:18:34;;;;;;;5.43;2.78;;;;;;;;;;5037477;28;20033;-80
2020/12/31 07:21:00;;;;;;;6.07;2.60;;;;;;;;;;5037252;28;20140;-78
2020/12/31 07:23:39;;;;;;;7.00;2.78;;;;;;;;;;5036864;28;20021;-77
2020/12/31 07:26:05;;;;;;;5.20;2.50;;;;;;;;;;5036886;28;20037;-77
2020/12/31 07:28:31;;;;;;;6.80;2.55;;;;;;;;;;5037119;28;20147;-78
2020/12/31 07:30:58;;;;;;;4.28;1.90;;;;;;;;;;5036759;28;20033;-77
2020/12/31 07:33:44;;;;;;;9.75;2.28;;;;;;;;;;5036749;28;20028;-76
2020/12/31 07:36:14;;;;;;;3.72;2.25;;;;;;;;;;5036880;28;20037;-77
2020/12/31 07:38:40;;;;;;;4.15;2.20;;;;;;;;;;5036919;28;20061;-78
2020/12/31 07:41:11;;;;;;;7.65;2.72;;;;;;;;;;5036575;28;20029;-78
2020/12/31 07:43:38;;;;;;;27.23;14.43;;;;;;;;;;5036486;28;20411;-78
2020/12/31 07:46:04;;;;;;;18.58;11.13;;;;;;;;;;5036449;28;20060;-79
2020/12/31 07:48:31;;;;;;;32.17;11.52;;;;;;;;;;5036815;28;20071;-78
2020/12/31 07:50:58;;;;;;;13.80;6.55;;;;;;;;;;5036285;28;20022;-78
2020/12/31 07:53:24;;;;;;;14.52;5.70;;;;;;;;;;5036626;28;20032;-79
2020/12/31 07:55:54;;;;;;;12.88;5.97;;;;;;;;;;5036512;28;20426;-79
2020/12/31 07:58:21;;;;;;;6.60;3.72;;;;;;;;;;5036343;28;20047;-78
2020/12/31 08:01:00;;;;;;;6.82;3.55;;;;;;;;;;5036289;28;20029;-79
2020/12/31 08:03:26;;;;;;;6.15;2.40;;;;;;;;;;5036532;28;20025;-78
2020/12/31 08:05:56;;;;;;;6.57;3.13;;;;;;;;;;5036010;28;20041;-78
2020/12/31 08:08:23;;;;;;;9.68;3.08;;;;;;;;;;5036310;28;20472;-79
2020/12/31 08:10:49;;;;;;;6.82;2.75;;;;;;;;;;5035986;28;20022;-79
2020/12/31 08:13:18;;;;;;;11.45;3.90;;;;;;;;;;5036005;28;20065;-78
2020/12/31 08:15:50;;;;;;;5.97;3.33;;;;;;;;;;5036105;28;20501;-77
2020/12/31 08:18:17;;;;;;;8.30;3.53;;;;;;;;;;5035761;28;20033;-77
2020/12/31 08:20:44;;;;;;;12.23;5.07;;;;;;;;;;5036371;28;20382;-77
2020/12/31 08:23:17;;;;;;;11.65;5.07;;;;;;;;;;5035758;28;20029;-77
2020/12/31 08:25:44;;;;;;;3.85;2.75;;;;;;;;;;5035639;28;20029;-77
2020/12/31 08:28:10;;;;;;;4.75;3.08;;;;;;;;;;5035663;28;20474;-77
2020/12/31 08:30:37;;;;;;;22.10;12.30;;;;;;;;;;5035472;28;20039;-78
2020/12/31 08:33:04;;;;;;;80.72;27.15;;;;;;;;;;5035899;28;20109;-78
2020/12/31 08:35:34;;;;;;;67.38;16.58;;;;;;;;;;5035221;28;20033;-78
2020/12/31 08:38:02;;;;;;;40.38;10.40;;;;;;;;;;5035436;28;20029;-78
2020/12/31 08:40:30;;;;;;;14.68;3.88;;;;;;;;;;5035370;28;20375;-77
2020/12/31 08:42:56;;;;;;;8.68;2.08;;;;;;;;;;5032631;28;20408;-71
2020/12/31 08:45:27;;;;;;;10.32;3.97;;;;;;;;;;5028737;28;20033;-78
2020/12/31 08:47:53;;;;;;;9.48;5.28;;;;;;;;;;5033323;28;20491;-78
2020/12/31 08:50:19;;;;;;;10.00;4.82;;;;;;;;;;5033231;28;20041;-78
2020/12/31 08:52:45;;;;;;;9.02;3.28;;;;;;;;;;5033245;28;20079;-78
2020/12/31 08:55:12;;;;;;;13.73;7.22;;;;;;;;;;5033532;28;20056;-78
2020/12/31 08:57:38;;;;;;;17.63;3.50;;;;;;;;;;5033296;28;20037;-76
2020/12/31 09:00:05;;;;;;;5.47;2.30;;;;;;;;;;5035125;28;20025;-79
2020/12/31 09:02:32;;;;;;;4.95;1.67;;;;;;;;;;5036136;28;20028;-78
2020/12/31 09:05:11;;;;;;;17.05;7.97;;;;;;;;;;5035948;28;20105;-78
2020/12/31 09:07:37;;;;;;;3.97;2.53;;;;;;;;;;5035836;28;20025;-79
2020/12/31 09:10:17;;;;;;;6.90;2.45;;;;;;;;;;5035977;28;20030;-77
2020/12/31 09:12:43;;;;;;;2.80;1.65;;;;;;;;;;5035238;28;20022;-77
2020/12/31 09:15:17;;;;;;;7.07;1.75;;;;;;;;;;5034925;28;20056;-77
2020/12/31 09:17:44;;;;;;;10.68;2.13;;;;;;;;;;5035213;28;20378;-76
2020/12/31 09:20:17;;;;;;;14.10;2.47;;;;;;;;;;5033574;28;20033;-78
2020/12/31 09:22:43;;;;;;;2.30;1.23;;;;;;;;;;5034920;28;20536;-77
2020/12/31 09:25:10;;;;;;;3.28;1.40;;;;;;;;;;5035497;28;20029;-78
2020/12/31 09:27:37;;;;;;;3.10;0.82;;;;;;;;;;5017911;28;20439;-76
2020/12/31 09:30:04;;;;;;;2.40;1.13;;;;;;;;;;5034395;28;20048;-77
2020/12/31 09:32:31;;;;;;;7.28;1.23;;;;;;;;;;5035111;28;20022;-78
2020/12/31 09:34:57;;;;;;;6.85;1.00;;;;;;;;;;5035066;28;20021;-77
2020/12/31 09:37:23;;;;;;;4.05;1.20;;;;;;;;;;5035002;28;20029;-77
2020/12/31 09:39:49;;;;;;;4.97;2.15;;;;;;;;;;5034715;28;20021;-77
2020/12/31 09:42:16;;;;;;;5.15;2.47;;;;;;;;;;5034359;28;20044;-77
2020/12/31 09:44:42;;;;;;;4.30;1.80;;;;;;;;;;5034455;28;20163;-77
2020/12/31 09:47:09;;;;;;;10.95;2.70;;;;;;;;;;5034576;28;20037;-76
2020/12/31 09:49:35;;;;;;;3.40;1.50;;;;;;;;;;5033328;28;20029;-76
2020/12/31 09:52:01;;;;;;;3.58;1.30;;;;;;;;;;5033507;28;20033;-77
2020/12/31 09:54:28;;;;;;;3.50;1.40;;;;;;;;;;5033734;28;20056;-77
2020/12/31 09:56:54;;;;;;;3.22;1.85;;;;;;;;;;5033949;28;20064;-77
2020/12/31 09:59:21;;;;;;;5.82;1.42;;;;;;;;;;5033204;28;20033;-77
2020/12/31 10:01:47;;;;;;;10.02;1.38;;;;;;;;;;5034213;28;20044;-75
2020/12/31 10:04:14;;;;;;;2.85;1.40;;;;;;;;;;5034398;28;20551;-79
2020/12/31 10:06:46;;;;;;;3.50;1.27;;;;;;;;;;5033803;28;20163;-78
2020/12/31 10:09:14;;;;;;;3.13;1.00;;;;;;;;;;5034055;28;20025;-77
2020/12/31 10:11:53;;;;;;;11.60;1.98;;;;;;;;;;5033797;28;20029;-77
2020/12/31 10:14:20;;;;;;;4.50;1.63;;;;;;;;;;5033855;28;20031;-78
2020/12/31 10:16:46;;;;;;;8.55;1.60;;;;;;;;;;5033681;28;20022;-77
2020/12/31 10:19:13;;;;;;;15.73;1.92;;;;;;;;;;5033685;28;20085;-78
2020/12/31 10:21:40;;;;;;;14.27;3.53;;;;;;;;;;5033587;28;20030;-77
2020/12/31 10:24:06;;;;;;;9.45;1.98;;;;;;;;;;5033427;28;20112;-78
2020/12/31 10:26:32;;;;;;;4.22;1.90;;;;;;;;;;5033582;28;20069;-77
2020/12/31 10:28:59;;;;;;;12.98;3.10;;;;;;;;;;5015991;28;20103;-78
2020/12/31 10:31:25;;;;;;;5.93;2.88;;;;;;;;;;5034208;28;20037;-82
2020/12/31 10:33:52;;;;;;;16.58;2.88;;;;;;;;;;5033543;28;20120;-76
2020/12/31 10:36:18;;;;;;;6.53;1.88;;;;;;;;;;5033498;28;20079;-80
2020/12/31 10:38:44;;;;;;;14.70;1.42;;;;;;;;;;5033404;28;20060;-77
2020/12/31 10:41:13;;;;;;;5.70;1.00;;;;;;;;;;5033433;28;20437;-80
2020/12/31 10:43:39;;;;;;;4.25;1.20;;;;;;;;;;5033265;28;20494;-75
2020/12/31 10:46:05;;;;;;;10.43;1.60;;;;;;;;;;5033202;28;20091;-77
2020/12/31 10:48:31;;;;;;;7.85;1.10;;;;;;;;;;5033469;28;20056;-79
2020/12/31 10:50:58;;;;;;;17.85;1.88;;;;;;;;;;5033563;28;20382;-77
2020/12/31 10:53:25;;;;;;;8.55;1.52;;;;;;;;;;5033292;28;20036;-77
2020/12/31 10:55:51;;;;;;;3.83;1.33;;;;;;;;;;5033296;28;20048;-77
2020/12/31 10:58:17;;;;;;;6.57;1.25;;;;;;;;;;5033493;28;20378;-76
2020/12/31 11:00:43;;;;;;;9.35;1.63;;;;;;;;;;5033453;28;20025;-78
2020/12/31 11:03:09;;;;;;;10.95;1.95;;;;;;;;;;5032619;28;20033;-76
2020/12/31 11:05:36;;;;;;;3.88;0.70;;;;;;;;;;5032025;28;20037;-77
2020/12/31 11:08:02;;;;;;;8.13;0.82;;;;;;;;;;5032634;28;20037;-78
2020/12/31 11:10:28;;;;;;;27.58;4.20;;;;;;;;;;5033059;28;20033;-77
2020/12/31 11:12:54;;;;;;;4.70;0.75;;;;;;;;;;5033154;28;20076;-77
2020/12/31 11:15:20;;;;;;;4.20;0.80;;;;;;;;;;5032633;28;20057;-77
2020/12/31 11:17:46;;;;;;;9.50;1.42;;;;;;;;;;5032489;28;20030;-78
2020/12/31 11:20:12;;;;;;;4.55;1.30;;;;;;;;;;5031856;28;20083;-79
2020/12/31 11:22:39;;;;;;;14.98;2.28;;;;;;;;;;5032888;28;20026;-78
2020/12/31 11:25:05;;;;;;;1.90;0.77;;;;;;;;;;5032705;28;20108;-60
2020/12/31 11:27:31;;;;;;;6.05;1.35;;;;;;;;;;5015256;28;20129;-65
2020/12/31 11:29:57;;;;;;;7.60;1.25;;;;;;;;;;5032656;28;20021;-66
2020/12/31 11:32:23;;;;;;;1.88;0.40;;;;;;;;;;5033071;28;20076;-66
2020/12/31 11:34:49;;;;;;;6.07;0.80;;;;;;;;;;5033075;28;20356;-66
2020/12/31 11:37:15;;;;;;;7.75;1.10;;;;;;;;;;5033107;28;20080;-66
2020/12/31 11:39:42;;;;;;;11.98;0.95;;;;;;;;;;5032711;28;20036;-65
2020/12/31 11:42:08;;;;;;;8.98;1.00;;;;;;;;;;5033033;28;20050;-66
2020/12/31 11:44:36;;;;;;;1.80;0.40;;;;;;;;;;5032699;28;20075;-66
2020/12/31 11:47:03;;;;;;;24.20;2.17;;;;;;;;;;5032748;28;20029;-66
2020/12/31 11:49:29;;;;;;;16.35;1.75;;;;;;;;;;5015099;28;20030;-65
2020/12/31 11:51:58;;;;;;;11.43;0.95;;;;;;;;;;5032672;28;20060;-65
2020/12/31 11:54:25;;;;;;;8.55;1.10;;;;;;;;;;5035826;28;20493;-65
2020/12/31 11:56:51;;;;;;;6.43;1.20;;;;;;;;;;5036038;28;20021;-65
2020/12/31 11:59:17;;;;;;;5.22;1.48;;;;;;;;;;5035411;28;20471;-65
2020/12/31 12:01:52;;;;;;;15.20;2.03;;;;;;;;;;5035910;28;20030;-65
2020/12/31 12:04:19;;;;;;;13.73;1.88;;;;;;;;;;5035303;28;20419;-65
2020/12/31 12:06:49;;;;;;;7.00;1.80;;;;;;;;;;5035207;28;20041;-65
2020/12/31 12:09:16;;;;;;;7.78;2.13;;;;;;;;;;5036197;28;20043;-65
2020/12/31 12:11:42;;;;;;;10.98;1.42;;;;;;;;;;5034677;28;20029;-66
2020/12/31 12:14:08;;;;;;;14.60;4.28;;;;;;;;;;5038792;28;20424;-66
2020/12/31 12:16:35;;;;;;;5.20;1.70;;;;;;;;;;5042749;28;20079;-66
2020/12/31 12:19:01;;;;;;;7.20;0.70;;;;;;;;;;5036024;28;20394;-66
2020/12/31 12:21:27;;;;;;;5.00;1.10;;;;;;;;;;5035967;28;20090;-66
2020/12/31 12:23:53;;;;;;;4.03;1.17;;;;;;;;;;5035789;28;20025;-66
2020/12/31 12:26:19;;;;;;;11.60;1.27;;;;;;;;;;5035680;28;20041;-67
2020/12/31 12:28:45;;;;;;;6.75;1.35;;;;;;;;;;5035746;28;20048;-67
2020/12/31 12:31:12;;;;;;;2.33;0.77;;;;;;;;;;5035729;28;20038;-66
2020/12/31 12:33:38;;;;;;;9.60;1.65;;;;;;;;;;5034641;28;20053;-65
2020/12/31 12:36:04;;;;;;;6.47;1.25;;;;;;;;;;5033592;28;20029;-65
2020/12/31 12:38:30;;;;;;;6.05;1.30;;;;;;;;;;5034285;28;20021;-66
2020/12/31 12:40:56;;;;;;;96.38;38.33;;;;;;;;;;5035375;28;20034;-65
2020/12/31 12:43:22;;;;;;;18.30;5.35;;;;;;;;;;5034549;28;20083;-66
2020/12/31 12:45:49;;;;;;;3.85;1.13;;;;;;;;;;5035278;28;20113;-67
2020/12/31 12:48:15;;;;;;;4.13;1.42;;;;;;;;;;5034624;28;20034;-66
2020/12/31 12:50:41;;;;;;;2.47;0.85;;;;;;;;;;5035228;28;20029;-66
2020/12/31 12:53:07;;;;;;;18.40;6.82;;;;;;;;;;5035096;28;20080;-63
2020/12/31 12:55:33;;;;;;;5.30;1.85;;;;;;;;;;5035177;28;20026;-66
2020/12/31 12:57:59;;;;;;;20.10;12.90;;;;;;;;;;5035075;28;20041;-65
2020/12/31 13:00:25;;;;;;;11.35;5.20;;;;;;;;;;5034525;28;20040;-65
2020/12/31 13:02:52;;;;;;;3.42;1.58;;;;;;;;;;5035085;28;20180;-64
2020/12/31 13:05:18;;;;;;;6.75;1.90;;;;;;;;;;5033714;28;20037;-65
2020/12/31 13:07:45;;;;;;;11.82;1.70;;;;;;;;;;5034294;28;20470;-64
2020/12/31 13:10:12;;;;;;;9.30;1.90;;;;;;;;;;5034882;28;20014;-64
2020/12/31 13:12:38;;;;;;;7.50;1.85;;;;;;;;;;5035000;28;20546;-63
2020/12/31 13:15:05;;;;;;;4.88;1.50;;;;;;;;;;5034724;28;20022;-64
2020/12/31 13:17:32;;;;;;;2.40;1.00;;;;;;;;;;5034968;28;20029;-64
2020/12/31 13:19:59;;;;;;;2.67;0.90;;;;;;;;;;5034893;28;20422;-64
2020/12/31 13:22:28;;;;;;;7.18;1.60;;;;;;;;;;5034271;28;20136;-65
2020/12/31 13:24:55;;;;;;;6.65;1.52;;;;;;;;;;5034639;28;20034;-64
2020/12/31 13:27:22;;;;;;;3.20;0.80;;;;;;;;;;5034527;28;20076;-64
2020/12/31 13:29:49;;;;;;;2.60;0.70;;;;;;;;;;5034635;28;20026;-66
2020/12/31 13:32:15;;;;;;;4.18;1.23;;;;;;;;;;5034470;28;20041;-65
2020/12/31 13:34:41;;;;;;;8.25;1.00;;;;;;;;;;5034548;28;20026;-66
2020/12/31 13:37:07;;;;;;;2.00;0.82;;;;;;;;;;5034587;28;20071;-66
2020/12/31 13:39:33;;;;;;;1.80;0.70;;;;;;;;;;5034719;28;20021;-66
2020/12/31 13:41:59;;;;;;;3.05;0.98;;;;;;;;;;5033889;28;20061;-65
2020/12/31 13:44:26;;;;;;;7.50;1.98;;;;;;;;;;5016721;28;20375;-66
2020/12/31 13:46:52;;;;;;;6.88;2.22;;;;;;;;;;5034057;28;20474;-66
2020/12/31 13:49:18;;;;;;;15.55;2.25;;;;;;;;;;5034511;28;20030;-67
2020/12/31 13:51:53;;;;;;;7.45;1.30;;;;;;;;;;5034331;28;20409;-67
2020/12/31 13:54:20;;;;;;;2.83;1.30;;;;;;;;;;5034255;28;20029;-67
2020/12/31 13:56:46;;;;;;;6.45;1.48;;;;;;;;;;5034349;28;20021;-67
2020/12/31 13:59:16;;;;;;;9.25;3.13;;;;;;;;;;5034362;28;20142;-67
2020/12/31 14:01:43;;;;;;;19.17;7.15;;;;;;;;;;5034294;28;20095;-67
2020/12/31 14:04:11;;;;;;;12.40;4.68;;;;;;;;;;5033903;28;20022;-67
2020/12/31 14:06:38;;;;;;;9.70;2.33;;;;;;;;;;5033817;28;20459;-67
2020/12/31 14:09:04;;;;;;;10.73;2.20;;;;;;;;;;5034237;28;20351;-66
2020/12/31 14:11:30;;;;;;;5.95;1.33;;;;;;;;;;5034130;28;20418;-66
2020/12/31 14:13:56;;;;;;;4.72;1.25;;;;;;;;;;5033725;28;20546;-66
2020/12/31 14:16:22;;;;;;;4.40;1.60;;;;;;;;;;5033565;28;20025;-66
2020/12/31 14:18:49;;;;;;;12.85;2.53;;;;;;;;;;5033540;28;20029;-66
2020/12/31 14:21:15;;;;;;;6.32;2.22;;;;;;;;;;5033786;28;20033;-66
2020/12/31 14:23:42;;;;;;;7.22;1.30;;;;;;;;;;5033503;28;20509;-66
2020/12/31 14:26:08;;;;;;;2.88;1.30;;;;;;;;;;5033477;28;20486;-66
2020/12/31 14:28:34;;;;;;;12.32;1.77;;;;;;;;;;5033490;28;20021;-66
2020/12/31 14:31:00;;;;;;;8.70;1.40;;;;;;;;;;5016136;28;20029;-66
2020/12/31 14:33:26;;;;;;;4.00;1.60;;;;;;;;;;5033279;28;20477;-66
2020/12/31 14:35:52;;;;;;;5.90;1.25;;;;;;;;;;5033407;28;20025;-69